North Oxford, Massachusetts
Current Conditions -  °F | °C
As of 1:54 PM on Monday 20 Oct 2014 (Local Time) from KORH Reporting Station
Clear Clear  
Wind Chill: 50°   Ceiling: Unl
Heat Index: 50°   Visibility: 10mi
Dew Point: 30°   Wind: 14mph
Humidity: 46%   Direction: 220°SW
Pressure: 29.98"   Gusts: NA
Location:  42.15°N, 71.87°W
Report Text: KORH 201754Z 22012KT 10SM CLR 10/M01 A2998 RMK AO2 SLP160 T01001011 10111 21006 56020
Loading
Personal Weather Stations






























Interactive Weather Map
Tropical Storm Tracking
New forecast layout! Learn more

10-Day Weather Forecast

Advertisements
Track Severe Weather on mobile